Time;durP1;ratioP1;P1;durP2;ratioP2;P2;SDS_P1;SDS_P2;PMS_P1;PMS_P2;Temp;Humidity;BMP_temperature;BMP_pressure;BME280_temperature;BME280_humidity;BME280_pressure;Samples;Min_cycle;Max_cycle;Signal;HPM_P1;HPM_P2
2024/02/03 00:03:04;;;;;;;41.53;7.38;;;;;;;8.70;100.00;102587.50;10371004;28;20127;-69
2024/02/03 00:08:05;;;;;;;13.63;5.07;;;;;;;8.80;100.00;102582.09;10370225;28;20034;-69
2024/02/03 00:13:05;;;;;;;26.38;6.18;;;;;;;8.82;100.00;102577.41;10372044;28;20034;-70
2024/02/03 00:18:05;;;;;;;9.23;5.45;;;;;;;8.89;100.00;102581.22;10369998;28;20503;-69
2024/02/03 00:23:06;;;;;;;8.50;4.35;;;;;;;8.93;100.00;102573.69;10377944;28;20084;-69
2024/02/03 00:28:06;;;;;;;20.10;5.05;;;;;;;8.97;100.00;102573.25;10377161;28;20030;-69
2024/02/03 00:33:07;;;;;;;22.08;6.05;;;;;;;8.98;100.00;102576.81;10377568;28;20041;-69
2024/02/03 00:38:08;;;;;;;19.85;5.57;;;;;;;9.05;100.00;102565.25;10377415;28;20064;-69
2024/02/03 00:43:08;;;;;;;19.40;4.82;;;;;;;9.11;100.00;102571.09;10376031;28;20034;-69
2024/02/03 00:48:09;;;;;;;21.90;4.28;;;;;;;9.23;100.00;102564.50;10375844;28;20422;-69
2024/02/03 00:53:09;;;;;;;8.07;3.75;;;;;;;9.30;100.00;102558.34;10376760;28;20113;-70
2024/02/03 00:58:10;;;;;;;8.02;4.72;;;;;;;9.38;100.00;102557.63;10376292;28;20053;-69
2024/02/03 01:03:10;;;;;;;13.45;5.13;;;;;;;9.46;100.00;102549.59;10375489;28;20438;-69
2024/02/03 01:08:11;;;;;;;12.65;4.88;;;;;;;9.50;100.00;102551.00;10377316;28;20226;-69
2024/02/03 01:13:12;;;;;;;12.45;5.40;;;;;;;9.65;100.00;102555.91;10376104;28;20037;-69
2024/02/03 01:18:12;;;;;;;11.18;3.50;;;;;;;9.69;100.00;102554.59;10376931;28;20430;-70
2024/02/03 01:23:12;;;;;;;14.07;4.82;;;;;;;9.71;100.00;102550.75;10391547;28;20163;-69
2024/02/03 01:28:14;;;;;;;7.00;2.70;;;;;;;9.80;100.00;102545.44;10357859;28;20038;-69
2024/02/03 01:33:14;;;;;;;6.38;3.60;;;;;;;9.79;100.00;102555.38;10407086;28;20065;-69
2024/02/03 01:38:15;;;;;;;5.88;3.33;;;;;;;9.77;100.00;102543.88;10357313;28;20129;-69
2024/02/03 01:43:16;;;;;;;4.60;3.25;;;;;;;9.83;100.00;102534.28;10389968;28;20382;-69
2024/02/03 01:48:17;;;;;;;6.72;3.05;;;;;;;9.86;100.00;102533.97;10374298;28;20045;-70
2024/02/03 01:53:18;;;;;;;16.48;3.63;;;;;;;9.83;100.00;102527.03;10374371;28;20500;-69
2024/02/03 01:58:19;;;;;;;9.15;3.10;;;;;;;9.81;100.00;102531.75;10373610;28;20132;-70
2024/02/03 02:03:19;;;;;;;8.80;4.43;;;;;;;9.81;100.00;102534.44;10405991;28;20040;-69
2024/02/03 02:08:31;;;;;;;8.65;2.90;;;;;;;9.82;100.00;102525.31;10356641;28;20104;-69
2024/02/03 02:13:32;;;;;;;9.50;3.67;;;;;;;9.84;100.00;102539.56;10373887;28;20038;-69
2024/02/03 02:18:32;;;;;;;11.07;4.15;;;;;;;9.82;100.00;102546.97;10373509;28;20486;-69
2024/02/03 02:23:33;;;;;;;16.65;4.38;;;;;;;9.81;100.00;102533.59;10355334;28;20048;-69
2024/02/03 02:28:33;;;;;;;21.33;5.25;;;;;;;9.78;100.00;102532.91;10374838;28;20048;-70
2024/02/03 02:33:34;;;;;;;14.80;6.15;;;;;;;9.78;100.00;102523.94;10373373;28;20033;-69
2024/02/03 02:38:34;;;;;;;9.68;3.33;;;;;;;9.72;100.00;102528.09;10372752;28;20521;-70
2024/02/03 02:43:34;;;;;;;7.97;4.20;;;;;;;9.75;100.00;102530.50;10371561;28;20160;-69
2024/02/03 02:48:35;;;;;;;11.68;5.07;;;;;;;9.75;100.00;102524.25;10372492;28;20073;-70
2024/02/03 02:53:35;;;;;;;18.27;3.83;;;;;;;9.75;100.00;102510.72;10372609;28;20033;-69
2024/02/03 02:58:36;;;;;;;9.60;3.28;;;;;;;9.75;100.00;102513.41;10371211;28;20149;-69
2024/02/03 03:03:36;;;;;;;19.80;4.50;;;;;;;9.83;100.00;102520.75;10371755;28;20470;-69
2024/02/03 03:08:37;;;;;;;9.02;4.05;;;;;;;9.84;100.00;102509.78;10372135;28;20458;-70
2024/02/03 03:13:38;;;;;;;8.57;3.50;;;;;;;9.83;100.00;102509.94;10372039;28;20497;-69
2024/02/03 03:18:38;;;;;;;14.45;6.00;;;;;;;9.77;100.00;102500.59;10371233;28;20065;-70
2024/02/03 03:23:39;;;;;;;8.80;3.25;;;;;;;9.72;100.00;102508.31;10372496;28;20030;-70
2024/02/03 03:28:39;;;;;;;24.80;5.30;;;;;;;9.75;100.00;102500.72;10372201;28;20048;-69
2024/02/03 03:33:39;;;;;;;9.68;4.05;;;;;;;9.72;100.00;102492.94;10372329;28;20040;-69
2024/02/03 03:38:42;;;;;;;8.60;3.42;;;;;;;9.62;100.00;102494.84;10371541;28;20057;-69
2024/02/03 03:43:43;;;;;;;18.80;4.95;;;;;;;9.62;100.00;102504.81;10371270;28;20095;-69
2024/02/03 03:48:43;;;;;;;20.38;4.88;;;;;;;9.62;100.00;102497.56;10371748;28;20121;-69
2024/02/03 03:53:44;;;;;;;12.65;2.72;;;;;;;9.64;100.00;102492.00;10376862;28;20117;-69
2024/02/03 03:58:44;;;;;;;10.32;4.15;;;;;;;9.64;100.00;102487.44;10377901;28;20472;-72
2024/02/03 04:03:45;;;;;;;13.45;5.47;;;;;;;9.63;100.00;102503.81;10379903;28;20382;-70
2024/02/03 04:08:45;;;;;;;22.90;4.70;;;;;;;9.61;100.00;102498.56;10378438;28;20120;-69
2024/02/03 04:13:48;;;;;;;13.88;4.07;;;;;;;9.61;100.00;102500.44;10378813;28;20141;-69
2024/02/03 04:18:48;;;;;;;20.35;5.70;;;;;;;9.65;100.00;102501.81;10379526;28;20038;-69
2024/02/03 04:23:49;;;;;;;6.57;3.70;;;;;;;9.55;100.00;102489.19;10377934;28;20046;-69
2024/02/03 04:28:49;;;;;;;16.38;5.15;;;;;;;9.58;100.00;102495.31;10377766;28;20070;-70
2024/02/03 04:33:50;;;;;;;10.10;3.63;;;;;;;9.46;100.00;102487.41;10376198;28;20128;-68
2024/02/03 04:38:50;;;;;;;9.90;4.90;;;;;;;9.41;100.00;102488.84;10376068;28;20046;-70
2024/02/03 04:43:51;;;;;;;12.98;3.75;;;;;;;9.35;100.00;102513.78;10377299;28;20529;-69
2024/02/03 04:48:52;;;;;;;16.52;4.55;;;;;;;9.39;100.00;102505.25;10375729;28;20082;-69
2024/02/03 04:53:52;;;;;;;18.42;4.65;;;;;;;9.51;100.00;102503.19;10376416;28;20041;-69
2024/02/03 04:58:53;;;;;;;7.60;3.90;;;;;;;9.51;100.00;102503.19;10375736;28;20061;-69
2024/02/03 05:03:53;;;;;;;9.45;3.42;;;;;;;9.51;100.00;102490.50;10375447;28;20046;-70
2024/02/03 05:08:58;;;;;;;10.55;5.50;;;;;;;9.51;100.00;102500.47;10374969;28;20505;-69
2024/02/03 05:13:58;;;;;;;11.55;4.28;;;;;;;9.55;100.00;102491.06;10374627;28;20029;-70
2024/02/03 05:19:01;;;;;;;13.63;4.50;;;;;;;9.44;100.00;102483.97;10376329;28;20196;-69
2024/02/03 05:24:02;;;;;;;18.83;4.78;;;;;;;9.25;100.00;102479.56;10375868;28;20042;-69
2024/02/03 05:29:02;;;;;;;15.50;4.47;;;;;;;9.25;100.00;102481.38;10376278;28;20038;-70
2024/02/03 05:34:03;;;;;;;11.50;3.88;;;;;;;9.29;100.00;102467.44;10378604;28;20117;-70
2024/02/03 05:39:03;;;;;;;14.35;4.38;;;;;;;9.40;100.00;102476.34;10377323;28;20042;-69
2024/02/03 05:44:04;;;;;;;19.25;3.67;;;;;;;9.43;100.00;102482.28;10375057;28;20113;-69
2024/02/03 05:49:04;;;;;;;10.77;4.30;;;;;;;9.52;100.00;102470.56;10356432;28;20062;-69
2024/02/03 05:54:05;;;;;;;14.23;3.17;;;;;;;9.50;100.00;102444.69;10374387;28;20069;-70
2024/02/03 05:59:06;;;;;;;9.48;3.42;;;;;;;9.52;100.00;102467.03;10375890;28;20119;-70
2024/02/03 06:04:08;;;;;;;7.55;3.58;;;;;;;9.54;100.00;102471.28;10373841;28;20469;-70
2024/02/03 06:09:08;;;;;;;24.33;5.05;;;;;;;9.55;100.00;102462.16;10374212;28;20046;-69
2024/02/03 06:14:08;;;;;;;16.70;4.10;;;;;;;9.55;100.00;102472.97;10372891;28;20500;-69
2024/02/03 06:19:09;;;;;;;12.50;4.18;;;;;;;9.58;100.00;102462.88;10372026;28;20108;-69
2024/02/03 06:24:10;;;;;;;11.68;3.88;;;;;;;9.57;100.00;102459.28;10404422;28;20033;-69
2024/02/03 06:29:11;;;;;;;14.15;4.40;;;;;;;9.70;100.00;102483.25;10372642;28;20450;-70
2024/02/03 06:34:11;;;;;;;8.10;3.75;;;;;;;9.77;100.00;102490.63;10373244;28;20034;-69
2024/02/03 06:39:12;;;;;;;15.30;3.90;;;;;;;9.82;100.00;102495.56;10371509;28;20041;-69
2024/02/03 06:44:12;;;;;;;25.30;5.22;;;;;;;9.87;100.00;102493.25;10372890;28;20131;-69
2024/02/03 06:49:13;;;;;;;23.65;3.75;;;;;;;9.90;100.00;102482.13;10373721;28;20468;-69
2024/02/03 06:54:13;;;;;;;7.35;4.82;;;;;;;9.87;100.00;102485.13;10371338;28;20046;-70
2024/02/03 06:59:14;;;;;;;9.43;5.18;;;;;;;9.89;100.00;102487.69;10373398;28;20117;-69
2024/02/03 07:04:14;;;;;;;11.25;3.28;;;;;;;9.83;100.00;102496.41;10371880;28;20480;-70
2024/02/03 07:09:14;;;;;;;4.30;2.10;;;;;;;9.84;100.00;102504.38;10371800;28;20461;-69
2024/02/03 07:14:15;;;;;;;12.88;3.38;;;;;;;9.81;100.00;102506.56;10371178;28;20120;-69
2024/02/03 07:19:15;;;;;;;7.65;2.90;;;;;;;9.80;100.00;102505.72;10372635;28;20050;-69
2024/02/03 07:24:16;;;;;;;6.30;3.50;;;;;;;9.85;100.00;102511.50;10371525;28;20021;-70
2024/02/03 07:29:17;;;;;;;12.77;4.25;;;;;;;9.91;100.00;102519.00;10374655;28;20061;-70
2024/02/03 07:34:17;;;;;;;17.63;6.20;;;;;;;9.91;100.00;102524.41;10377597;28;20106;-69
2024/02/03 07:39:18;;;;;;;3.92;3.22;;;;;;;9.94;100.00;102517.84;10378129;28;20460;-69
2024/02/03 07:44:18;;;;;;;13.60;3.92;;;;;;;10.00;100.00;102522.66;10378918;28;20049;-69
2024/02/03 07:49:19;;;;;;;9.05;3.28;;;;;;;10.06;100.00;102523.88;10377160;28;20120;-70
2024/02/03 07:54:19;;;;;;;17.67;2.80;;;;;;;10.03;100.00;102519.63;10377287;28;20065;-69
2024/02/03 07:59:20;;;;;;;2.42;2.22;;;;;;;10.05;100.00;102531.16;10361394;28;20053;-69
2024/02/03 08:04:20;;;;;;;13.45;3.40;;;;;;;10.05;100.00;102530.28;10380287;28;20040;-69
2024/02/03 08:09:20;;;;;;;6.65;3.08;;;;;;;10.07;100.00;102539.13;10378610;28;20030;-69
2024/02/03 08:14:21;;;;;;;4.13;3.20;;;;;;;10.14;100.00;102532.91;10377388;28;20458;-69
2024/02/03 08:19:21;;;;;;;13.05;4.18;;;;;;;10.06;100.00;102535.56;10377782;28;20069;-70
2024/02/03 08:24:22;;;;;;;23.73;5.10;;;;;;;9.98;100.00;102533.59;10375809;28;20108;-69
2024/02/03 08:29:22;;;;;;;16.42;4.40;;;;;;;9.93;100.00;102535.94;10378026;28;20424;-69
2024/02/03 08:34:23;;;;;;;12.70;5.45;;;;;;;10.00;100.00;102528.06;10360292;28;20058;-69
2024/02/03 08:39:23;;;;;;;8.18;2.92;;;;;;;9.98;100.00;102511.94;10377251;28;20029;-69
2024/02/03 08:44:23;;;;;;;9.57;4.45;;;;;;;10.13;100.00;102508.72;10376994;28;20033;-69
2024/02/03 08:49:27;;;;;;;6.88;3.45;;;;;;;10.26;100.00;102506.50;10376916;28;20088;-69
2024/02/03 08:54:27;;;;;;;8.52;3.53;;;;;;;10.29;100.00;102506.19;10377062;28;20093;-69
2024/02/03 08:59:27;;;;;;;7.07;2.70;;;;;;;10.38;100.00;102520.66;10376969;28;20083;-69
2024/02/03 09:04:28;;;;;;;8.77;4.20;;;;;;;10.39;100.00;102506.94;10375098;28;20081;-69
2024/02/03 09:09:28;;;;;;;6.65;2.63;;;;;;;10.41;100.00;102520.34;10376029;28;20537;-69
2024/02/03 09:14:29;;;;;;;4.20;2.92;;;;;;;10.39;100.00;102504.25;10376131;28;20034;-69
2024/02/03 09:19:29;;;;;;;17.65;3.03;;;;;;;10.42;100.00;102506.63;10335466;28;20049;-69
2024/02/03 09:24:30;;;;;;;5.47;3.13;;;;;;;10.39;100.00;102485.28;10336105;28;20450;-68
2024/02/03 09:29:30;;;;;;;5.80;2.85;;;;;;;10.46;100.00;102497.22;10350353;28;20403;-69
2024/02/03 09:34:30;;;;;;;8.13;3.45;;;;;;;10.58;100.00;102515.91;10334251;28;20146;-68
2024/02/03 09:39:32;;;;;;;7.82;4.30;;;;;;;10.56;100.00;102517.91;10334285;28;20066;-68
2024/02/03 09:44:32;;;;;;;10.35;3.03;;;;;;;10.57;100.00;102515.06;10334033;28;20406;-69
2024/02/03 09:49:33;;;;;;;11.05;2.70;;;;;;;10.56;100.00;102512.47;10334631;28;20053;-69
2024/02/03 09:54:33;;;;;;;3.05;2.80;;;;;;;10.55;100.00;102529.75;10332589;28;20038;-69
2024/02/03 09:59:34;;;;;;;7.28;3.15;;;;;;;10.53;100.00;102520.94;10332146;28;20129;-69
2024/02/03 10:04:40;;;;;;;8.07;3.10;;;;;;;10.52;100.00;102535.47;10366456;28;20034;-69
2024/02/03 10:09:41;;;;;;;;;;;;;;;10.56;100.00;102524.19;10366392;28;20363;-69
2024/02/03 10:14:41;;;;;;;15.82;4.88;;;;;;;10.74;100.00;102526.84;10364677;28;19925;-69
2024/02/03 10:19:42;;;;;;;9.90;2.75;;;;;;;10.74;100.00;102529.56;10315950;28;20046;-68
2024/02/03 10:24:44;;;;;;;11.50;3.03;;;;;;;10.90;100.00;102537.78;10331780;28;20039;-69
2024/02/03 10:29:57;;;;;;;5.60;3.35;;;;;;;10.96;100.00;102546.31;10332706;28;20041;-68
2024/02/03 10:34:57;;;;;;;5.50;2.83;;;;;;;10.90;100.00;102542.38;10332196;28;20411;-68
2024/02/03 10:39:58;;;;;;;9.35;3.30;;;;;;;10.84;100.00;102530.28;10348830;28;20026;-69
2024/02/03 10:44:59;;;;;;;9.25;3.85;;;;;;;10.86;100.00;102527.44;10347505;28;20416;-69
2024/02/03 10:50:00;;;;;;;8.68;5.20;;;;;;;10.99;100.00;102535.16;10332615;28;20034;-69
2024/02/03 10:55:00;;;;;;;8.65;2.58;;;;;;;11.07;100.00;102532.47;10331535;28;20477;-68
2024/02/03 11:00:06;;;;;;;18.60;4.60;;;;;;;11.16;100.00;102528.78;10330057;28;20038;-69
2024/02/03 11:05:09;;;;;;;8.48;2.70;;;;;;;11.22;100.00;102528.16;10314493;28;20033;-69
2024/02/03 11:10:13;;;;;;;5.53;2.63;;;;;;;11.29;100.00;102523.75;10330731;28;20038;-68
2024/02/03 11:15:16;;;;;;;8.45;2.35;;;;;;;11.25;100.00;102530.53;10315154;28;20037;-68
2024/02/03 11:20:20;;;;;;;13.57;3.20;;;;;;;11.27;100.00;102523.09;10314421;28;20479;-69
2024/02/03 11:25:20;;;;;;;16.40;4.82;;;;;;;11.16;100.00;102509.81;10330133;28;20038;-69
2024/02/03 11:30:21;;;;;;;7.43;2.33;;;;;;;11.02;100.00;102513.16;10331125;28;20035;-70
2024/02/03 11:35:24;;;;;;;10.45;3.83;;;;;;;10.70;100.00;102510.06;10331618;28;20085;-69
2024/02/03 11:40:24;;;;;;;4.93;2.78;;;;;;;10.70;100.00;102498.38;10332250;28;20390;-70
2024/02/03 11:45:24;;;;;;;18.15;3.83;;;;;;;10.77;100.00;102496.72;10345629;28;20081;-70
2024/02/03 11:50:25;;;;;;;9.18;4.00;;;;;;;10.74;100.00;102499.75;10314205;28;20038;-70
2024/02/03 11:55:25;;;;;;;6.90;4.88;;;;;;;10.82;100.00;102485.41;10330951;28;20086;-72
2024/02/03 12:00:26;;;;;;;10.10;4.18;;;;;;;10.89;100.00;102487.31;10329950;28;20038;-70
2024/02/03 12:05:26;;;;;;;11.30;3.88;;;;;;;10.89;100.00;102495.44;10331438;28;20066;-70
2024/02/03 12:10:28;;;;;;;19.58;4.38;;;;;;;11.05;100.00;102494.69;10330545;28;20042;-70
2024/02/03 12:15:29;;;;;;;18.58;4.38;;;;;;;11.23;100.00;102478.34;10332995;28;20057;-70
2024/02/03 12:20:29;;;;;;;5.18;3.28;;;;;;;11.44;100.00;102469.75;10337691;28;20041;-70
2024/02/03 12:25:30;;;;;;;6.78;3.35;;;;;;;11.51;100.00;102476.22;10336850;28;20092;-72
2024/02/03 12:30:35;;;;;;;10.50;3.83;;;;;;;11.62;100.00;102480.50;10336986;28;20061;-70
2024/02/03 12:35:36;;;;;;;4.13;3.03;;;;;;;11.68;100.00;102465.41;10337392;28;20034;-70
2024/02/03 12:40:36;;;;;;;19.77;5.10;;;;;;;11.56;100.00;102465.72;10336752;28;20038;-70
2024/02/03 12:45:37;;;;;;;7.70;3.35;;;;;;;11.54;100.00;102447.91;10336115;28;20125;-70
2024/02/03 12:50:37;;;;;;;10.75;3.20;;;;;;;11.53;100.00;102455.22;10351879;28;20034;-70
2024/02/03 12:55:38;;;;;;;7.15;3.40;;;;;;;11.80;100.00;102451.34;10337182;28;20101;-70
2024/02/03 13:00:38;;;;;;;6.60;3.75;;;;;;;12.36;100.00;102437.16;10319916;28;20039;-70
2024/02/03 13:05:42;;;;;;;13.35;3.33;;;;;;;12.18;100.00;102462.59;10336073;28;20104;-70
2024/02/03 13:10:43;;;;;;;4.65;3.10;;;;;;;11.95;100.00;102442.59;10336737;28;20038;-70
2024/02/03 13:15:44;;;;;;;11.85;2.90;;;;;;;11.75;100.00;102455.59;10334268;28;20033;-69
2024/02/03 13:20:44;;;;;;;8.68;2.88;;;;;;;11.83;100.00;102442.03;10334637;28;20397;-70
2024/02/03 13:25:44;;;;;;;8.43;4.10;;;;;;;11.85;100.00;102438.16;10334744;28;20097;-70
2024/02/03 13:30:45;;;;;;;5.95;2.95;;;;;;;11.89;100.00;102429.69;10365688;28;20054;-70
2024/02/03 13:35:46;;;;;;;9.57;4.30;;;;;;;12.08;100.00;102435.63;10335323;28;20108;-70
2024/02/03 13:40:47;;;;;;;11.73;4.80;;;;;;;11.94;100.00;102433.59;10334494;28;20034;-70
2024/02/03 13:45:47;;;;;;;8.40;3.22;;;;;;;11.83;100.00;102423.03;10334234;28;20027;-70
2024/02/03 13:50:48;;;;;;;8.23;2.78;;;;;;;12.12;100.00;102422.53;10332718;28;20034;-71
2024/02/03 13:55:48;;;;;;;7.63;2.83;;;;;;;12.23;100.00;102416.78;10333457;28;20065;-70
2024/02/03 14:00:48;;;;;;;5.65;2.08;;;;;;;12.21;100.00;102428.81;10366944;28;20121;-69
2024/02/03 14:05:49;;;;;;;6.60;3.40;;;;;;;12.08;100.00;102421.19;10333323;28;20117;-69
2024/02/03 14:10:49;;;;;;;15.93;2.67;;;;;;;11.99;100.00;102404.06;10333473;28;20130;-69
2024/02/03 14:15:50;;;;;;;15.65;4.07;;;;;;;11.99;100.00;102400.50;10333818;28;20125;-69
2024/02/03 14:20:50;;;;;;;8.02;3.22;;;;;;;12.05;100.00;102410.69;10333592;28;20109;-70
2024/02/03 14:25:50;;;;;;;8.90;3.05;;;;;;;11.76;100.00;102412.00;10333835;28;20069;-70
2024/02/03 14:30:51;;;;;;;6.47;3.53;;;;;;;11.83;100.00;102414.88;10333253;28;20439;-70
2024/02/03 14:35:52;;;;;;;6.85;4.28;;;;;;;11.81;100.00;102416.94;10363428;28;20181;-70
2024/02/03 14:40:53;;;;;;;10.75;3.63;;;;;;;11.62;100.00;102420.81;10330530;28;20354;-70
2024/02/03 14:45:53;;;;;;;6.30;4.13;;;;;;;11.64;100.00;102438.59;10332438;28;20026;-70
2024/02/03 14:50:55;;;;;;;13.23;3.97;;;;;;;11.62;100.00;102439.81;10332715;28;20085;-71
2024/02/03 14:55:56;;;;;;;23.92;4.35;;;;;;;11.54;100.00;102428.91;10332046;28;20061;-70
2024/02/03 15:00:56;;;;;;;6.28;3.30;;;;;;;11.47;100.00;102431.44;10330127;28;20050;-71
2024/02/03 15:05:56;;;;;;;11.13;3.83;;;;;;;11.39;100.00;102431.41;10314819;28;20050;-70
2024/02/03 15:10:57;;;;;;;7.68;3.05;;;;;;;11.28;100.00;102432.59;10298954;28;20093;-70
2024/02/03 15:15:57;;;;;;;7.57;4.43;;;;;;;11.10;100.00;102445.38;10297400;28;20030;-69
2024/02/03 15:20:58;;;;;;;9.63;4.38;;;;;;;10.94;100.00;102435.31;10331367;28;20117;-70
2024/02/03 15:25:59;;;;;;;12.80;3.60;;;;;;;10.67;100.00;102448.06;10331587;28;20497;-70
2024/02/03 15:30:59;;;;;;;10.40;3.55;;;;;;;10.53;100.00;102450.50;10329566;28;20098;-70
2024/02/03 15:36:00;;;;;;;19.13;5.07;;;;;;;10.45;100.00;102462.97;10331091;28;20496;-70
2024/02/03 15:41:00;;;;;;;10.70;3.78;;;;;;;10.42;100.00;102457.88;10330525;28;20034;-70
2024/02/03 15:46:01;;;;;;;8.27;4.30;;;;;;;10.42;100.00;102452.47;10332014;28;20546;-70
2024/02/03 15:51:01;;;;;;;16.48;4.20;;;;;;;10.53;100.00;102453.22;10320377;28;20058;-70
2024/02/03 15:56:02;;;;;;;7.68;4.90;;;;;;;10.62;100.00;102449.53;10338560;28;20118;-70
2024/02/03 16:01:02;;;;;;;18.98;5.53;;;;;;;10.45;100.00;102446.75;10337998;28;20117;-69
2024/02/03 16:06:03;;;;;;;18.55;6.38;;;;;;;10.27;100.00;102448.63;10337577;28;20389;-70
2024/02/03 16:11:03;;;;;;;10.80;4.93;;;;;;;10.06;100.00;102439.97;10338368;28;20030;-69
2024/02/03 16:16:04;;;;;;;15.95;6.25;;;;;;;10.00;100.00;102453.13;10370287;28;20031;-69
2024/02/03 16:21:05;;;;;;;7.38;4.32;;;;;;;10.09;100.00;102447.78;10337845;28;20030;-69
2024/02/03 16:26:05;;;;;;;19.83;6.18;;;;;;;10.10;100.00;102435.94;10339633;28;20455;-69
2024/02/03 16:31:05;;;;;;;19.40;4.53;;;;;;;9.91;100.00;102418.03;10336747;28;20486;-69
2024/02/03 16:36:06;;;;;;;26.48;6.47;;;;;;;9.91;100.00;102415.31;10336753;28;20074;-69
2024/02/03 16:41:07;;;;;;;35.70;6.82;;;;;;;9.88;100.00;102418.34;10352038;28;20088;-69
2024/02/03 16:46:07;;;;;;;28.67;7.18;;;;;;;9.86;100.00;102420.34;10337367;28;20064;-70
2024/02/03 16:51:08;;;;;;;25.25;6.30;;;;;;;9.72;100.00;102419.88;10336063;28;20109;-69
2024/02/03 16:56:08;;;;;;;20.00;8.23;;;;;;;9.58;100.00;102417.72;10336636;28;20096;-69
2024/02/03 17:01:09;;;;;;;25.33;6.85;;;;;;;9.56;100.00;102427.84;10367064;28;20505;-69
2024/02/03 17:06:09;;;;;;;15.95;5.25;;;;;;;9.48;100.00;102409.69;10336254;28;20042;-69
2024/02/03 17:11:09;;;;;;;15.82;7.63;;;;;;;9.43;100.00;102420.09;10336289;28;20386;-69
2024/02/03 17:16:10;;;;;;;23.67;6.85;;;;;;;9.49;100.00;102410.53;10366747;28;20030;-69
2024/02/03 17:21:10;;;;;;;6.55;5.03;;;;;;;9.49;100.00;102418.66;10335681;28;20117;-70
2024/02/03 17:26:11;;;;;;;13.70;5.22;;;;;;;9.53;100.00;102429.00;10336208;28;20347;-69
2024/02/03 17:31:11;;;;;;;21.13;5.68;;;;;;;9.48;100.00;102435.88;10336051;28;20046;-69
2024/02/03 17:36:12;;;;;;;35.70;8.95;;;;;;;9.45;100.00;102428.06;10334894;28;20258;-70
2024/02/03 17:41:12;;;;;;;21.75;7.28;;;;;;;9.42;100.00;102423.81;10336120;28;20042;-69
2024/02/03 17:46:16;;;;;;;16.35;6.43;;;;;;;9.39;100.00;102425.97;10335197;28;20117;-69
2024/02/03 17:51:16;;;;;;;23.27;7.30;;;;;;;9.31;100.00;102426.72;10333019;28;20430;-69
2024/02/03 17:56:17;;;;;;;22.23;7.97;;;;;;;9.34;100.00;102436.38;10317137;28;20073;-69
2024/02/03 18:01:18;;;;;;;14.57;6.57;;;;;;;9.31;100.00;102422.16;10333717;28;20467;-69
2024/02/03 18:06:19;;;;;;;27.85;6.90;;;;;;;9.36;100.00;102431.69;10332441;28;20041;-69
2024/02/03 18:11:20;;;;;;;22.95;8.50;;;;;;;9.21;100.00;102434.91;10364827;28;20478;-69
2024/02/03 18:16:21;;;;;;;21.52;6.40;;;;;;;9.16;100.00;102430.97;10332816;28;20081;-69
2024/02/03 18:21:22;;;;;;;23.10;10.45;;;;;;;9.21;100.00;102439.44;10332244;28;20096;-69
2024/02/03 18:26:22;;;;;;;20.55;8.43;;;;;;;9.33;100.00;102430.13;10333425;28;20097;-69
2024/02/03 18:31:22;;;;;;;20.00;6.63;;;;;;;9.39;100.00;102423.28;10333143;28;20152;-69
2024/02/03 18:36:23;;;;;;;28.60;9.23;;;;;;;9.40;100.00;102425.81;10332578;28;20062;-69
2024/02/03 18:41:23;;;;;;;25.48;8.38;;;;;;;9.45;100.00;102426.22;10347642;28;20347;-70
2024/02/03 18:46:24;;;;;;;21.27;6.57;;;;;;;9.46;100.00;102430.63;10332465;28;20045;-69
2024/02/03 18:51:24;;;;;;;27.63;8.88;;;;;;;9.51;100.00;102425.63;10346989;28;20034;-70
2024/02/03 18:56:26;;;;;;;30.38;8.80;;;;;;;9.48;100.00;102416.97;10332637;28;20038;-69
2024/02/03 19:01:27;;;;;;;25.15;9.18;;;;;;;9.51;100.00;102425.63;10333274;28;20406;-69
2024/02/03 19:06:28;;;;;;;16.40;6.95;;;;;;;9.59;100.00;102427.53;10332151;28;20034;-69
2024/02/03 19:11:28;;;;;;;28.80;7.63;;;;;;;9.57;100.00;102442.22;10332040;28;20078;-70
2024/02/03 19:16:29;;;;;;;17.58;8.90;;;;;;;9.61;100.00;102419.28;10363491;28;20121;-69
2024/02/03 19:21:29;;;;;;;15.70;8.13;;;;;;;9.68;100.00;102460.94;10331705;28;20083;-70
2024/02/03 19:26:29;;;;;;;14.70;6.90;;;;;;;9.73;100.00;102451.38;10339387;28;20070;-70
2024/02/03 19:31:32;;;;;;;13.95;6.97;;;;;;;9.81;100.00;102431.63;10340604;28;20070;-69
2024/02/03 19:36:33;;;;;;;34.17;8.50;;;;;;;9.74;100.00;102430.56;10339621;28;20481;-69
2024/02/03 19:41:34;;;;;;;23.67;7.45;;;;;;;9.72;100.00;102432.56;10354113;28;20054;-69
2024/02/03 19:46:35;;;;;;;28.08;7.15;;;;;;;9.70;100.00;102423.75;10339370;28;20034;-69
2024/02/03 19:51:35;;;;;;;22.23;10.27;;;;;;;9.71;100.00;102426.31;10371986;28;20394;-69
2024/02/03 19:56:35;;;;;;;26.55;12.18;;;;;;;9.69;100.00;102427.47;10338978;28;20422;-68
2024/02/03 20:01:36;;;;;;;22.60;7.97;;;;;;;9.70;100.00;102385.88;10339619;28;20084;-67
2024/02/03 20:06:36;;;;;;;9.50;6.30;;;;;;;9.73;100.00;102426.13;10339282;28;20127;-67
2024/02/03 20:11:37;;;;;;;15.82;6.57;;;;;;;9.74;100.00;102393.53;10369561;28;20090;-69
2024/02/03 20:16:37;;;;;;;20.80;8.65;;;;;;;9.85;100.00;102410.53;10338782;28;20037;-68
2024/02/03 20:21:37;;;;;;;25.38;8.35;;;;;;;9.90;100.00;102429.88;10338718;28;20110;-68
2024/02/03 20:26:38;;;;;;;18.73;6.07;;;;;;;9.91;100.00;102431.56;10338341;28;20042;-67
2024/02/03 20:31:38;;;;;;;25.30;8.68;;;;;;;9.91;100.00;102436.97;10338164;28;20042;-67
2024/02/03 20:36:39;;;;;;;26.77;6.75;;;;;;;9.89;100.00;102428.16;10336455;28;20030;-67
2024/02/03 20:41:39;;;;;;;20.65;7.85;;;;;;;9.94;100.00;102429.38;10337230;28;20057;-67
2024/02/03 20:46:40;;;;;;;16.92;9.75;;;;;;;9.96;100.00;102424.69;10320296;28;20130;-68
2024/02/03 20:51:40;;;;;;;19.50;7.53;;;;;;;9.93;100.00;102416.03;10337691;28;20041;-67
2024/02/03 20:56:40;;;;;;;14.68;8.30;;;;;;;9.85;100.00;102416.78;10335544;28;20058;-67
2024/02/03 21:01:41;;;;;;;24.27;9.85;;;;;;;9.84;100.00;102409.69;10337099;28;20046;-69
2024/02/03 21:06:41;;;;;;;15.98;7.90;;;;;;;9.81;100.00;102404.59;10336367;28;20441;-68
2024/02/03 21:11:45;;;;;;;17.63;6.47;;;;;;;9.81;100.00;102403.75;10368014;28;20179;-67
2024/02/03 21:16:45;;;;;;;28.60;8.48;;;;;;;9.88;100.00;102400.25;10318555;28;20053;-68
2024/02/03 21:21:46;;;;;;;21.88;9.38;;;;;;;9.92;100.00;102396.25;10335997;28;20038;-68
2024/02/03 21:26:47;;;;;;;18.40;7.10;;;;;;;9.87;100.00;102382.31;10367546;28;20360;-68
2024/02/03 21:31:47;;;;;;;26.50;10.10;;;;;;;9.86;100.00;102390.56;10335471;28;20113;-68
2024/02/03 21:36:47;;;;;;;25.95;7.05;;;;;;;9.81;100.00;102382.94;10336422;28;20180;-68
2024/02/03 21:41:48;;;;;;;33.58;9.02;;;;;;;9.75;100.00;102362.75;10334716;28;20047;-69
2024/02/03 21:46:48;;;;;;;22.38;6.43;;;;;;;9.71;100.00;102364.09;10334269;28;20058;-68
2024/02/03 21:51:49;;;;;;;22.77;8.43;;;;;;;9.65;100.00;102374.69;10333083;28;20089;-68
2024/02/03 21:56:49;;;;;;;16.00;6.28;;;;;;;9.68;100.00;102361.69;10334116;28;20062;-69
2024/02/03 22:01:49;;;;;;;35.03;7.28;;;;;;;9.65;100.00;102339.53;10334606;28;20108;-68
2024/02/03 22:06:50;;;;;;;14.15;6.15;;;;;;;9.59;100.00;102341.00;10333842;28;20495;-68
2024/02/03 22:11:52;;;;;;;17.73;8.63;;;;;;;9.61;100.00;102339.00;10331770;28;20117;-69
2024/02/03 22:16:52;;;;;;;4.15;1.75;;;;;;;9.62;100.00;102339.84;10348791;28;20038;-69
2024/02/03 22:21:53;;;;;;;0.30;0.30;;;;;;;9.58;100.00;102335.75;10335537;28;20080;-70
2024/02/03 22:26:54;;;;;;;0.70;0.70;;;;;;;9.52;100.00;102329.94;10333617;28;20038;-70
2024/02/03 22:31:54;;;;;;;0.40;0.40;;;;;;;9.50;100.00;102325.69;10333014;28;20117;-69
2024/02/03 22:36:55;;;;;;;2.47;2.38;;;;;;;9.43;100.00;102308.41;10334225;28;20066;-69
2024/02/03 22:41:57;;;;;;;0.60;0.60;;;;;;;9.41;100.00;102322.09;10334133;28;20375;-69
2024/02/03 22:46:57;;;;;;;0.57;0.57;;;;;;;9.40;100.00;102314.97;10332468;28;20031;-70